Time;durP1;ratioP1;P1;durP2;ratioP2;P2;SDS_P1;SDS_P2;PMS_P1;PMS_P2;Temp;Humidity;BMP_temperature;BMP_pressure;BME280_temperature;BME280_humidity;BME280_pressure;Samples;Min_cycle;Max_cycle;Signal;HPM_P1;HPM_P2
2024/01/02 00:02:05;;;;;;;;;;;7.60;99.90;;;;;;5059210;28;19998;-73
2024/01/02 00:04:32;;;;;;;;;;;7.50;99.90;;;;;;5065395;28;19936;-73
2024/01/02 00:06:58;;;;;;;;;;;7.60;99.90;;;;;;5070449;28;19928;-73
2024/01/02 00:09:25;;;;;;;;;;;7.60;99.90;;;;;;5064003;28;19932;-73
2024/01/02 00:11:52;;;;;;;;;;;7.50;99.90;;;;;;5069404;28;19940;-73
2024/01/02 00:14:19;;;;;;;;;;;7.60;99.90;;;;;;5064623;28;20239;-72
2024/01/02 00:16:46;;;;;;;;;;;7.50;99.90;;;;;;5066697;28;19932;-73
2024/01/02 00:19:13;;;;;;;;;;;7.60;99.90;;;;;;5063555;28;20491;-74
2024/01/02 00:21:40;;;;;;;;;;;7.60;99.90;;;;;;5064517;28;19936;-74
2024/01/02 00:24:06;;;;;;;;;;;7.60;99.90;;;;;;5064346;28;20010;-73
2024/01/02 00:26:34;;;;;;;;;;;7.60;99.90;;;;;;5064939;28;19941;-73
2024/01/02 00:29:01;;;;;;;;;;;7.60;99.90;;;;;;5066548;28;19994;-74
2024/01/02 00:31:29;;;;;;;;;;;7.50;99.90;;;;;;5064808;28;20426;-74
2024/01/02 00:33:54;;;;;;;;;;;7.60;99.90;;;;;;5065492;28;19987;-74
2024/01/02 00:36:21;;;;;;;;;;;7.60;99.90;;;;;;5061675;28;19932;-73
2024/01/02 00:38:47;;;;;;;;;;;7.60;99.90;;;;;;5068917;28;19928;-74
2024/01/02 00:41:14;;;;;;;;;;;7.60;99.90;;;;;;5066333;28;19968;-72
2024/01/02 00:43:40;;;;;;;;;;;7.60;99.90;;;;;;5063108;28;19932;-73
2024/01/02 00:46:07;;;;;;;;;;;7.60;99.90;;;;;;5059698;28;19944;-74
2024/01/02 00:48:35;;;;;;;;;;;7.60;99.90;;;;;;5065223;28;20420;-74
2024/01/02 00:51:01;;;;;;;;;;;7.60;99.90;;;;;;5061371;28;19932;-72
2024/01/02 00:53:28;;;;;;;;;;;7.60;99.90;;;;;;5062193;28;19928;-73
2024/01/02 00:55:55;;;;;;;;;;;7.60;99.90;;;;;;5061208;28;19932;-73
2024/01/02 00:58:21;;;;;;;;;;;7.60;99.90;;;;;;5068820;28;19935;-73
2024/01/02 01:00:48;;;;;;;;;;;7.60;99.90;;;;;;5061888;28;20538;-73
2024/01/02 01:03:14;;;;;;;;;;;7.60;99.90;;;;;;5065077;28;19932;-73
2024/01/02 01:05:42;;;;;;;;;;;7.60;99.90;;;;;;5064847;28;20855;-73
2024/01/02 01:08:09;;;;;;;;;;;7.60;99.90;;;;;;5065799;28;19936;-73
2024/01/02 01:10:35;;;;;;;;;;;7.60;99.90;;;;;;5058872;28;19988;-73
2024/01/02 01:13:02;;;;;;;;;;;7.60;99.90;;;;;;5061314;28;20326;-73
2024/01/02 01:15:28;;;;;;;;;;;7.60;99.90;;;;;;5062131;28;19928;-73
2024/01/02 01:17:55;;;;;;;;;;;7.60;99.90;;;;;;5060700;28;19936;-74
2024/01/02 01:20:22;;;;;;;;;;;7.60;99.90;;;;;;5062715;28;19955;-73
2024/01/02 01:22:49;;;;;;;;;;;7.60;99.90;;;;;;5061416;28;19932;-73
2024/01/02 01:25:16;;;;;;;;;;;7.60;99.90;;;;;;5063943;28;19943;-74
2024/01/02 01:27:42;;;;;;;;;;;7.60;99.90;;;;;;5060467;28;19936;-73
2024/01/02 01:30:09;;;;;;;;;;;7.60;99.90;;;;;;5061032;28;19925;-74
2024/01/02 01:32:36;;;;;;;;;;;7.60;99.90;;;;;;5062030;28;19951;-74
2024/01/02 01:35:03;;;;;;;;;;;7.60;99.90;;;;;;5062229;28;20307;-73
2024/01/02 01:37:30;;;;;;;;;;;7.60;99.90;;;;;;5065077;28;19935;-73
2024/01/02 01:39:58;;;;;;;;;;;7.60;99.90;;;;;;5063505;28;19929;-73
2024/01/02 01:42:24;;;;;;;;;;;7.60;99.90;;;;;;5061269;28;20603;-74
2024/01/02 01:44:51;;;;;;;;;;;7.60;99.90;;;;;;5059438;28;19932;-73
2024/01/02 01:47:17;;;;;;;;;;;7.60;99.90;;;;;;5061622;28;19932;-73
2024/01/02 01:49:44;;;;;;;;;;;7.60;99.90;;;;;;5063053;28;19929;-73
2024/01/02 01:52:12;;;;;;;;;;;7.60;99.90;;;;;;5067013;28;20023;-73
2024/01/02 01:54:39;;;;;;;;;;;7.60;99.90;;;;;;5063189;28;19928;-73
2024/01/02 01:57:07;;;;;;;;;;;7.70;99.90;;;;;;5062641;28;20015;-73
2024/01/02 01:59:33;;;;;;;;;;;7.60;99.90;;;;;;5059614;28;20315;-73
2024/01/02 02:02:00;;;;;;;;;;;7.60;99.90;;;;;;5064294;28;19932;-74
2024/01/02 02:04:28;;;;;;;;;;;7.60;99.90;;;;;;5062848;28;20112;-73
2024/01/02 02:06:54;;;;;;;;;;;7.70;99.90;;;;;;5062649;28;20002;-74
2024/01/02 02:09:21;;;;;;;;;;;7.60;99.90;;;;;;5063315;28;19935;-74
2024/01/02 02:11:48;;;;;;;;;;;7.70;99.90;;;;;;5065020;28;20050;-74
2024/01/02 02:14:16;;;;;;;;;;;7.60;99.90;;;;;;5063411;28;19928;-73
2024/01/02 02:16:43;;;;;;;;;;;7.70;99.90;;;;;;5057941;28;19939;-74
2024/01/02 02:19:09;;;;;;;;;;;7.60;99.90;;;;;;5064004;28;19929;-73
2024/01/02 02:21:36;;;;;;;;;;;7.70;99.90;;;;;;5061640;28;19936;-73
2024/01/02 02:24:05;;;;;;;;;;;7.60;99.90;;;;;;5064086;28;19928;-74
2024/01/02 02:26:31;;;;;;;;;;;7.70;99.90;;;;;;5059963;28;19928;-73
2024/01/02 02:28:58;;;;;;;;;;;7.60;99.90;;;;;;5064323;28;19932;-74
2024/01/02 02:31:24;;;;;;;;;;;7.60;99.90;;;;;;5057360;28;19936;-73
2024/01/02 02:33:51;;;;;;;;;;;7.70;99.90;;;;;;5062948;28;19932;-73
2024/01/02 02:36:17;;;;;;;;;;;7.70;99.90;;;;;;5063609;28;19932;-74
2024/01/02 02:38:44;;;;;;;;;;;7.60;99.90;;;;;;5061645;28;19936;-74
2024/01/02 02:41:12;;;;;;;;;;;7.70;99.90;;;;;;5063206;28;20001;-74
2024/01/02 02:43:39;;;;;;;;;;;7.70;99.90;;;;;;5060439;28;20459;-74
2024/01/02 02:46:05;;;;;;;;;;;7.70;99.90;;;;;;5059151;28;21995;-74
2024/01/02 02:48:32;;;;;;;;;;;7.70;99.90;;;;;;5062114;28;19932;-73
2024/01/02 02:50:58;;;;;;;;;;;7.70;99.90;;;;;;5063740;28;21094;-74
2024/01/02 02:53:25;;;;;;;;;;;7.70;99.90;;;;;;5062870;28;19933;-74
2024/01/02 02:55:52;;;;;;;;;;;7.70;99.90;;;;;;5061721;28;19936;-74
2024/01/02 02:58:20;;;;;;;;;;;7.60;99.90;;;;;;5063634;28;19971;-74
2024/01/02 03:00:46;;;;;;;;;;;7.70;99.90;;;;;;5061322;28;19936;-74
2024/01/02 03:03:14;;;;;;;;;;;7.60;99.90;;;;;;5059049;28;19928;-74
2024/01/02 03:05:41;;;;;;;;;;;7.70;99.90;;;;;;5059895;28;19935;-74
2024/01/02 03:08:07;;;;;;;;;;;7.60;99.90;;;;;;5059667;28;20200;-74
2024/01/02 03:10:34;;;;;;;;;;;7.60;99.90;;;;;;5062346;28;19937;-74
2024/01/02 03:13:00;;;;;;;;;;;7.60;99.90;;;;;;5061634;28;19975;-74
2024/01/02 03:15:28;;;;;;;;;;;7.60;99.90;;;;;;5060600;28;19928;-73
2024/01/02 03:17:55;;;;;;;;;;;7.60;99.90;;;;;;5062338;28;19986;-74
2024/01/02 03:20:21;;;;;;;;;;;7.60;99.90;;;;;;5061715;28;19936;-74
2024/01/02 03:22:48;;;;;;;;;;;7.60;99.90;;;;;;5060268;28;19940;-74
2024/01/02 03:25:14;;;;;;;;;;;7.60;99.90;;;;;;5064753;28;19938;-74
2024/01/02 03:27:41;;;;;;;;;;;7.60;99.90;;;;;;5063228;28;19932;-74
2024/01/02 03:30:08;;;;;;;;;;;7.60;99.90;;;;;;5061275;28;19978;-75
2024/01/02 03:32:35;;;;;;;;;;;7.60;99.90;;;;;;5060223;28;19937;-74
2024/01/02 03:35:02;;;;;;;;;;;7.60;99.90;;;;;;5062029;28;19934;-74
2024/01/02 03:37:29;;;;;;;;;;;7.60;99.90;;;;;;5062552;28;19925;-74
2024/01/02 03:39:55;;;;;;;;;;;7.60;99.90;;;;;;5060444;28;19936;-74
2024/01/02 03:42:22;;;;;;;;;;;7.60;99.90;;;;;;5055611;28;19932;-74
2024/01/02 03:44:49;;;;;;;;;;;7.60;99.90;;;;;;5062229;28;19978;-74
2024/01/02 03:47:15;;;;;;;;;;;7.50;99.90;;;;;;5056638;28;19929;-74
2024/01/02 03:49:43;;;;;;;;;;;7.50;99.90;;;;;;5062711;28;20499;-75
2024/01/02 03:52:10;;;;;;;;;;;7.50;99.90;;;;;;5060338;28;19929;-74
2024/01/02 03:54:36;;;;;;;;;;;7.50;99.90;;;;;;5057752;28;20398;-73
2024/01/02 03:57:03;;;;;;;;;;;7.50;99.90;;;;;;5060196;28;19940;-75
2024/01/02 03:59:30;;;;;;;;;;;7.50;99.90;;;;;;5062278;28;19935;-75
2024/01/02 04:01:56;;;;;;;;;;;7.50;99.90;;;;;;5057973;28;19928;-75
2024/01/02 04:04:23;;;;;;;;;;;7.50;99.90;;;;;;5061505;28;19929;-74
2024/01/02 04:06:50;;;;;;;;;;;7.50;99.90;;;;;;5061850;28;19928;-74
2024/01/02 04:09:17;;;;;;;;;;;7.40;99.90;;;;;;5057893;28;20369;-74
2024/01/02 04:11:43;;;;;;;;;;;7.40;99.90;;;;;;5062845;28;20319;-74
2024/01/02 04:14:10;;;;;;;;;;;7.50;99.90;;;;;;5068987;28;19928;-74
2024/01/02 04:16:36;;;;;;;;;;;7.50;99.90;;;;;;5063850;28;19936;-74
2024/01/02 04:19:03;;;;;;;;;;;7.40;99.90;;;;;;5064027;28;19932;-75
2024/01/02 04:21:30;;;;;;;;;;;7.40;99.90;;;;;;5063110;28;19936;-74
2024/01/02 04:23:57;;;;;;;;;;;7.50;99.90;;;;;;5064344;28;20457;-74
2024/01/02 04:26:24;;;;;;;;;;;7.40;99.90;;;;;;5058192;28;19928;-74
2024/01/02 04:28:51;;;;;;;;;;;7.40;99.90;;;;;;5063652;28;19932;-74
2024/01/02 04:31:17;;;;;;;;;;;7.40;99.90;;;;;;5062164;28;19947;-74
2024/01/02 04:33:44;;;;;;;;;;;7.40;99.90;;;;;;5063412;28;20374;-74
2024/01/02 04:36:11;;;;;;;;;;;7.40;99.90;;;;;;5064831;28;19928;-73
2024/01/02 04:38:38;;;;;;;;;;;7.40;99.90;;;;;;5066009;28;20027;-73
2024/01/02 04:41:06;;;;;;;;;;;7.40;99.90;;;;;;5065109;28;19933;-73
2024/01/02 04:43:33;;;;;;;;;;;7.40;99.90;;;;;;5065481;28;19928;-74
2024/01/02 04:45:59;;;;;;;;;;;7.40;99.90;;;;;;5061417;28;20142;-74
2024/01/02 04:48:26;;;;;;;;;;;7.40;99.90;;;;;;5067312;28;20457;-74
2024/01/02 04:50:53;;;;;;;;;;;7.40;99.90;;;;;;5066047;28;20321;-74
2024/01/02 04:53:19;;;;;;;;;;;7.30;99.90;;;;;;5065051;28;19932;-74
2024/01/02 04:55:46;;;;;;;;;;;7.40;99.90;;;;;;5063361;28;19932;-73
2024/01/02 04:58:14;;;;;;;;;;;7.40;99.90;;;;;;5063961;28;19935;-74
2024/01/02 05:00:40;;;;;;;;;;;7.40;99.90;;;;;;5065060;28;19953;-74
2024/01/02 05:03:07;;;;;;;;;;;7.30;99.90;;;;;;5065395;28;20287;-74
2024/01/02 05:05:33;;;;;;;;;;;7.30;99.90;;;;;;5062603;28;19940;-73
2024/01/02 05:08:00;;;;;;;;;;;7.40;99.90;;;;;;5062641;28;19933;-74
2024/01/02 05:10:26;;;;;;;;;;;7.30;99.90;;;;;;5065782;28;20329;-74
2024/01/02 05:12:53;;;;;;;;;;;7.30;99.90;;;;;;5066275;28;19928;-74
2024/01/02 05:15:21;;;;;;;;;;;7.30;99.90;;;;;;5062061;28;19937;-74
2024/01/02 05:17:47;;;;;;;;;;;7.30;99.90;;;;;;5063514;28;20143;-74
2024/01/02 05:20:14;;;;;;;;;;;7.30;99.90;;;;;;5061345;28;19935;-73
2024/01/02 05:22:40;;;;;;;;;;;7.30;99.90;;;;;;5060741;28;20341;-73
2024/01/02 05:25:08;;;;;;;;;;;7.30;99.90;;;;;;5063166;28;19933;-75
2024/01/02 05:27:34;;;;;;;;;;;7.30;99.90;;;;;;5064160;28;19936;-74
2024/01/02 05:30:01;;;;;;;;;;;7.30;99.90;;;;;;5062925;28;19947;-74
2024/01/02 05:32:29;;;;;;;;;;;7.30;99.90;;;;;;5061358;28;20490;-74
2024/01/02 05:34:55;;;;;;;;;;;7.30;99.90;;;;;;5060409;28;19937;-75
2024/01/02 05:37:22;;;;;;;;;;;7.30;99.90;;;;;;5063273;28;19932;-74
2024/01/02 05:39:48;;;;;;;;;;;7.30;99.90;;;;;;5064362;28;20314;-74
2024/01/02 05:42:15;;;;;;;;;;;7.30;99.90;;;;;;5064983;28;19929;-74
2024/01/02 05:44:41;;;;;;;;;;;7.30;99.90;;;;;;5065058;28;19990;-73
2024/01/02 05:47:08;;;;;;;;;;;7.30;99.90;;;;;;5060724;28;20648;-74
2024/01/02 05:49:36;;;;;;;;;;;7.20;99.90;;;;;;5061042;28;19928;-74
2024/01/02 05:52:02;;;;;;;;;;;7.30;99.90;;;;;;5064211;28;20002;-74
2024/01/02 05:54:29;;;;;;;;;;;7.30;99.90;;;;;;5063401;28;19970;-74
2024/01/02 05:56:55;;;;;;;;;;;7.30;99.90;;;;;;5061466;28;20345;-74
2024/01/02 05:59:22;;;;;;;;;;;7.20;99.90;;;;;;5065437;28;19928;-74
2024/01/02 06:01:48;;;;;;;;;;;7.30;99.90;;;;;;5055791;28;19929;-74
2024/01/02 06:04:15;;;;;;;;;;;7.20;99.90;;;;;;5061878;28;19967;-74
2024/01/02 06:06:43;;;;;;;;;;;7.20;99.90;;;;;;5065626;28;19928;-74
2024/01/02 06:09:09;;;;;;;;;;;7.30;99.90;;;;;;5057861;28;20141;-74
2024/01/02 06:11:36;;;;;;;;;;;7.30;99.90;;;;;;5061204;28;19936;-74
2024/01/02 06:14:02;;;;;;;;;;;7.30;99.90;;;;;;5061612;28;21420;-74
2024/01/02 06:16:29;;;;;;;;;;;7.20;99.90;;;;;;5064947;28;20531;-74
2024/01/02 06:18:56;;;;;;;;;;;7.30;99.90;;;;;;5065292;28;20360;-73
2024/01/02 06:21:22;;;;;;;;;;;7.20;99.90;;;;;;5058380;28;19928;-74
2024/01/02 06:23:50;;;;;;;;;;;7.30;99.90;;;;;;5060042;28;19936;-74
2024/01/02 06:26:16;;;;;;;;;;;7.30;99.90;;;;;;5064200;28;19932;-74
2024/01/02 06:28:43;;;;;;;;;;;7.30;99.90;;;;;;5064901;28;20446;-73
2024/01/02 06:31:09;;;;;;;;;;;7.30;99.90;;;;;;5060750;28;20001;-74
2024/01/02 06:33:36;;;;;;;;;;;7.30;99.90;;;;;;5060601;28;19928;-73
2024/01/02 06:36:03;;;;;;;;;;;7.30;99.90;;;;;;5061743;28;19950;-74
2024/01/02 06:38:29;;;;;;;;;;;7.30;99.90;;;;;;5062280;28;19929;-74
2024/01/02 06:40:57;;;;;;;;;;;7.30;99.90;;;;;;5062820;28;19933;-74
2024/01/02 06:43:24;;;;;;;;;;;7.30;99.90;;;;;;5061213;28;19989;-74
2024/01/02 06:45:50;;;;;;;;;;;7.20;99.90;;;;;;5060652;28;19928;-73
2024/01/02 06:48:17;;;;;;;;;;;7.30;99.90;;;;;;5059847;28;19932;-74
2024/01/02 06:50:43;;;;;;;;;;;7.30;99.90;;;;;;5064479;28;19936;-74
2024/01/02 06:53:10;;;;;;;;;;;7.30;99.90;;;;;;5064373;28;19928;-64
2024/01/02 06:55:36;;;;;;;;;;;7.30;99.90;;;;;;5060367;28;19959;-64
2024/01/02 06:58:04;;;;;;;;;;;7.30;99.90;;;;;;5066218;28;19962;-64
2024/01/02 07:00:32;;;;;;;;;;;7.30;99.90;;;;;;5064782;28;19932;-64
2024/01/02 07:02:58;;;;;;;;;;;7.30;99.90;;;;;;5062063;28;19933;-64
2024/01/02 07:05:25;;;;;;;;;;;7.30;99.90;;;;;;5060419;28;20499;-64
2024/01/02 07:07:52;;;;;;;;;;;7.30;99.90;;;;;;5060616;28;19943;-64
2024/01/02 07:10:18;;;;;;;;;;;7.30;99.90;;;;;;5065190;28;19932;-65
2024/01/02 07:12:45;;;;;;;;;;;7.30;99.90;;;;;;5062870;28;19932;-64
2024/01/02 07:15:13;;;;;;;;;;;7.30;99.90;;;;;;5065695;28;19929;-64
2024/01/02 07:17:40;;;;;;;;;;;7.30;99.90;;;;;;5064490;28;19929;-65
2024/01/02 07:20:07;;;;;;;;;;;7.30;99.90;;;;;;5060875;28;20558;-64
2024/01/02 07:22:34;;;;;;;;;;;7.30;99.90;;;;;;5061112;28;20345;-64
2024/01/02 07:25:00;;;;;;;;;;;7.30;99.90;;;;;;5062997;28;19936;-64
2024/01/02 07:27:27;;;;;;;;;;;7.30;99.90;;;;;;5064694;28;19932;-65
2024/01/02 07:29:54;;;;;;;;;;;7.40;99.90;;;;;;5060708;28;19928;-65
2024/01/02 07:32:22;;;;;;;;;;;7.40;99.90;;;;;;5064774;28;20328;-64
2024/01/02 07:34:48;;;;;;;;;;;7.40;99.90;;;;;;5063930;28;20199;-63
2024/01/02 07:37:15;;;;;;;;;;;7.40;99.90;;;;;;5065520;28;19932;-64
2024/01/02 07:39:42;;;;;;;;;;;7.40;99.90;;;;;;5063290;28;19929;-64
2024/01/02 07:42:09;;;;;;;;;;;7.40;99.90;;;;;;5065477;28;19933;-64
2024/01/02 07:44:36;;;;;;;;;;;7.40;99.90;;;;;;5066199;28;19928;-65
2024/01/02 07:47:02;;;;;;;;;;;7.40;99.90;;;;;;5060889;28;20648;-64
2024/01/02 07:49:30;;;;;;;;;;;7.40;99.90;;;;;;5067984;28;20028;-64
2024/01/02 07:51:57;;;;;;;;;;;7.40;99.90;;;;;;5069283;28;19932;-64
2024/01/02 07:54:23;;;;;;;;;;;7.40;99.90;;;;;;5064330;28;19998;-64
2024/01/02 07:56:50;;;;;;;;;;;7.40;99.90;;;;;;5068530;28;19928;-64
2024/01/02 07:59:19;;;;;;;;;;;7.40;99.90;;;;;;5069563;28;19932;-65
2024/01/02 08:01:46;;;;;;;;;;;7.50;99.90;;;;;;5065964;28;19933;-65
2024/01/02 08:04:13;;;;;;;;;;;7.40;99.90;;;;;;5062957;28;19990;-64
2024/01/02 08:06:40;;;;;;;;;;;7.40;99.90;;;;;;5069011;28;20021;-64
2024/01/02 08:09:07;;;;;;;;;;;7.40;99.90;;;;;;5067139;28;19955;-65
2024/01/02 08:11:33;;;;;;;;;;;7.50;99.90;;;;;;5067248;28;19929;-65
2024/01/02 08:14:00;;;;;;;;;;;7.50;99.90;;;;;;5067637;28;19944;-64
2024/01/02 08:16:26;;;;;;;;;;;7.50;99.90;;;;;;5066018;28;19929;-64
2024/01/02 08:18:53;;;;;;;;;;;7.50;99.90;;;;;;5064512;28;19928;-65
2024/01/02 08:21:19;;;;;;;;;;;7.50;99.90;;;;;;5062328;28;19932;-64
2024/01/02 08:23:47;;;;;;;;;;;7.50;99.90;;;;;;5066591;28;19932;-65
2024/01/02 08:26:14;;;;;;;;;;;7.50;99.90;;;;;;5068196;28;19936;-64
2024/01/02 08:28:41;;;;;;;;;;;7.50;99.90;;;;;;5061490;28;19998;-74
2024/01/02 08:31:07;;;;;;;;;;;7.50;99.90;;;;;;5060007;28;20088;-73
2024/01/02 08:33:34;;;;;;;;;;;7.50;99.90;;;;;;5060611;28;19924;-74
2024/01/02 08:36:00;;;;;;;;;;;7.50;99.90;;;;;;5064004;28;19928;-74
2024/01/02 08:38:27;;;;;;;;;;;7.50;99.90;;;;;;5062436;28;19924;-73
2024/01/02 08:40:55;;;;;;;;;;;7.50;99.90;;;;;;5065751;28;19928;-73
2024/01/02 08:43:21;;;;;;;;;;;7.50;99.90;;;;;;5062021;28;19928;-75
2024/01/02 08:45:48;;;;;;;;;;;7.50;99.90;;;;;;5064686;28;20698;-74
2024/01/02 08:48:15;;;;;;;;;;;7.50;99.90;;;;;;5061728;28;19928;-74
2024/01/02 08:50:42;;;;;;;;;;;7.60;99.90;;;;;;5062358;28;20027;-75
2024/01/02 08:53:09;;;;;;;;;;;7.60;99.90;;;;;;5061158;28;19975;-74
2024/01/02 08:55:36;;;;;;;;;;;7.50;99.90;;;;;;5059402;28;19937;-75
2024/01/02 08:58:04;;;;;;;;;;;7.60;99.90;;;;;;5062293;28;19928;-74
2024/01/02 09:00:31;;;;;;;;;;;7.60;99.90;;;;;;5063446;28;20046;-74
2024/01/02 09:02:57;;;;;;;;;;;7.50;99.90;;;;;;5060861;28;19924;-73
2024/01/02 09:05:26;;;;;;;;;;;7.60;99.90;;;;;;5061027;28;20314;-74
2024/01/02 09:07:52;;;;;;;;;;;7.60;99.90;;;;;;5062806;28;19939;-75
2024/01/02 09:10:19;;;;;;;;;;;7.60;99.90;;;;;;5062085;28;19936;-72
2024/01/02 09:12:45;;;;;;;;;;;7.60;99.90;;;;;;5065464;28;19932;-75
2024/01/02 09:15:13;;;;;;;;;;;7.60;99.90;;;;;;5059939;28;20006;-74
2024/01/02 09:17:40;;;;;;;;;;;7.60;99.90;;;;;;5062533;28;19932;-75
2024/01/02 09:20:08;;;;;;;;;;;7.60;99.90;;;;;;5059799;28;19929;-74
2024/01/02 09:22:34;;;;;;;;;;;7.60;99.90;;;;;;5058554;28;19932;-73
2024/01/02 09:25:01;;;;;;;;;;;7.60;99.90;;;;;;5062944;28;19932;-74
2024/01/02 09:27:29;;;;;;;;;;;7.70;99.90;;;;;;5062841;28;19933;-74
2024/01/02 09:29:56;;;;;;;;;;;7.60;99.90;;;;;;5062375;28;19928;-73
2024/01/02 09:32:23;;;;;;;;;;;7.60;99.90;;;;;;5061814;28;19935;-75
2024/01/02 09:34:50;;;;;;;;;;;7.70;99.90;;;;;;5061987;28;19935;-74
2024/01/02 09:37:17;;;;;;;;;;;7.70;99.90;;;;;;5061636;28;19940;-75
2024/01/02 09:39:43;;;;;;;;;;;7.60;99.90;;;;;;5060922;28;20410;-75
2024/01/02 09:42:23;;;;;;;;;;;7.70;99.90;;;;;;5062984;28;19929;-74
2024/01/02 09:44:54;;;;;;;;;;;7.70;99.90;;;;;;5060908;28;19933;-73
2024/01/02 09:47:32;;;;;;;;;;;7.70;99.90;;;;;;5056859;28;19963;-76
2024/01/02 09:49:59;;;;;;;;;;;7.70;99.90;;;;;;5059397;28;19933;-72
2024/01/02 09:52:46;;;;;;;;;;;7.70;99.90;;;;;;5060712;28;19928;-75
2024/01/02 09:55:17;;;;;;;;;;;7.70;99.90;;;;;;5053571;28;19935;-74
2024/01/02 09:57:59;;;;;;;;;;;7.80;99.90;;;;;;5061356;28;19924;-75
2024/01/02 10:00:30;;;;;;;;;;;7.80;99.90;;;;;;5057516;28;20314;-74
2024/01/02 10:03:11;;;;;;;;;;;7.70;99.90;;;;;;5063270;28;19928;-75
2024/01/02 10:05:53;;;;;;;;;;;7.80;99.90;;;;;;5057491;28;19928;-75
2024/01/02 10:08:42;;;;;;;;;;;7.80;99.90;;;;;;5060645;28;19932;-75
2024/01/02 10:11:15;;;;;;;;;;;7.80;99.90;;;;;;5060334;28;19932;-75
2024/01/02 10:13:48;;;;;;;;;;;7.80;99.90;;;;;;5057800;28;19928;-74
2024/01/02 10:16:19;;;;;;;;;;;7.80;99.90;;;;;;5058772;28;19929;-75
2024/01/02 10:19:00;;;;;;;;;;;7.90;99.90;;;;;;5060676;28;19940;-74
2024/01/02 10:21:29;;;;;;;;;;;7.80;99.90;;;;;;5042467;28;19929;-73
2024/01/02 10:24:03;;;;;;;;;;;7.80;99.90;;;;;;5041655;28;19928;-74
2024/01/02 10:26:30;;;;;;;;;;;7.80;99.90;;;;;;5042672;28;19932;-75
2024/01/02 10:29:01;;;;;;;;;;;7.90;99.90;;;;;;5039202;28;20011;-74
2024/01/02 10:31:32;;;;;;;;;;;7.90;99.90;;;;;;5041224;28;19936;-75
2024/01/02 10:34:04;;;;;;;;;;;7.90;99.90;;;;;;5042602;28;20571;-74
2024/01/02 10:36:33;;;;;;;;;;;7.90;99.90;;;;;;5044737;28;19928;-75
2024/01/02 10:39:07;;;;;;;;;;;7.90;99.90;;;;;;5040968;28;19932;-75
2024/01/02 10:41:42;;;;;;;;;;;7.80;99.90;;;;;;5041044;28;19986;-74
2024/01/02 10:44:13;;;;;;;;;;;7.90;99.90;;;;;;5045526;28;23709;-75
2024/01/02 10:46:46;;;;;;;;;;;7.90;99.90;;;;;;5043842;28;20018;-74
2024/01/02 10:49:21;;;;;;;;;;;8.00;99.90;;;;;;5042017;28;19929;-74
2024/01/02 10:51:50;;;;;;;;;;;7.90;99.90;;;;;;5041554;28;19933;-75
2024/01/02 10:54:20;;;;;;;;;;;8.00;99.90;;;;;;5042607;28;19952;-75
2024/01/02 10:56:51;;;;;;;;;;;8.00;99.90;;;;;;5041021;28;20320;-75
2024/01/02 10:59:27;;;;;;;;;;;8.00;99.90;;;;;;5044141;28;19932;-75
2024/01/02 11:01:59;;;;;;;;;;;8.00;99.90;;;;;;5041179;28;20314;-75
2024/01/02 11:04:31;;;;;;;;;;;8.00;99.90;;;;;;5040557;28;19943;-73
2024/01/02 11:07:03;;;;;;;;;;;8.00;99.90;;;;;;5047054;28;19985;-73
2024/01/02 11:09:31;;;;;;;;;;;8.00;99.90;;;;;;5041438;28;20664;-75
2024/01/02 11:11:59;;;;;;;;;;;8.00;99.90;;;;;;5043425;28;19937;-76
2024/01/02 11:14:27;;;;;;;;;;;8.00;99.90;;;;;;5042185;28;19935;-76
2024/01/02 11:16:56;;;;;;;;;;;8.00;99.90;;;;;;5040520;28;19939;-74
2024/01/02 11:19:30;;;;;;;;;;;8.10;99.90;;;;;;5042894;28;20999;-74
2024/01/02 11:22:01;;;;;;;;;;;8.10;99.90;;;;;;5046168;28;20356;-74
2024/01/02 11:24:29;;;;;;;;;;;8.10;99.90;;;;;;5045763;28;19935;-73
2024/01/02 11:26:56;;;;;;;;;;;8.10;99.90;;;;;;5044222;28;19928;-73
2024/01/02 11:29:24;;;;;;;;;;;8.10;99.90;;;;;;5042068;28;19939;-73
2024/01/02 11:31:52;;;;;;;;;;;8.10;99.90;;;;;;5045312;28;20575;-73
2024/01/02 11:34:29;;;;;;;;;;;8.10;99.90;;;;;;5046843;28;20078;-74
2024/01/02 11:37:03;;;;;;;;;;;8.10;99.90;;;;;;5046907;28;19929;-74
2024/01/02 11:39:34;;;;;;;;;;;8.10;99.90;;;;;;5045642;28;19943;-73
2024/01/02 11:42:07;;;;;;;;;;;8.10;99.90;;;;;;5046258;28;19929;-73
2024/01/02 11:44:40;;;;;;;;;;;8.10;99.90;;;;;;5058070;28;19932;-74
2024/01/02 11:47:11;;;;;;;;;;;8.10;99.90;;;;;;5060512;28;19939;-73
2024/01/02 11:49:42;;;;;;;;;;;8.10;99.90;;;;;;5070111;28;19927;-73
2024/01/02 11:52:12;;;;;;;;;;;8.20;99.90;;;;;;5065084;28;20382;-74
2024/01/02 11:54:41;;;;;;;;;;;8.20;99.90;;;;;;5064755;28;19940;-75
2024/01/02 11:57:14;;;;;;;;;;;8.20;99.90;;;;;;5061918;28;19933;-74
2024/01/02 11:59:45;;;;;;;;;;;8.20;99.90;;;;;;5067091;28;20063;-74
2024/01/02 12:02:19;;;;;;;;;;;8.20;99.90;;;;;;5062839;28;20042;-73
2024/01/02 12:04:56;;;;;;;;;;;8.20;99.90;;;;;;5064041;28;20629;-74
2024/01/02 12:07:26;;;;;;;;;;;8.30;99.90;;;;;;5058668;28;19932;-74
2024/01/02 12:09:53;;;;;;;;;;;8.30;99.90;;;;;;5063740;28;19928;-74
2024/01/02 12:12:28;;;;;;;;;;;8.30;99.90;;;;;;5058048;28;19932;-74
2024/01/02 12:15:03;;;;;;;;;;;8.20;99.90;;;;;;5060450;28;19933;-73
2024/01/02 12:17:30;;;;;;;;;;;8.30;99.90;;;;;;5061891;28;19928;-75
2024/01/02 12:20:01;;;;;;;;;;;8.30;99.90;;;;;;5064801;28;20385;-74
2024/01/02 12:22:29;;;;;;;;;;;8.30;99.90;;;;;;5061492;28;20415;-73
2024/01/02 12:24:55;;;;;;;;;;;8.30;99.90;;;;;;5058955;28;19932;-74
2024/01/02 12:27:23;;;;;;;;;;;8.30;99.90;;;;;;5067787;28;20475;-75
2024/01/02 12:29:51;;;;;;;;;;;8.30;99.90;;;;;;5062670;28;20581;-73
2024/01/02 12:32:22;;;;;;;;;;;8.30;99.90;;;;;;5062173;28;19932;-74
2024/01/02 12:34:52;;;;;;;;;;;8.30;99.90;;;;;;5058695;28;20031;-73
2024/01/02 12:37:23;;;;;;;;;;;8.30;99.90;;;;;;5055060;28;20301;-73
2024/01/02 12:39:52;;;;;;;;;;;8.30;99.90;;;;;;5058899;28;20700;-73
2024/01/02 12:42:23;;;;;;;;;;;8.30;99.90;;;;;;5062523;28;19938;-74
2024/01/02 12:44:51;;;;;;;;;;;8.30;99.90;;;;;;5064339;28;20463;-74
2024/01/02 12:47:21;;;;;;;;;;;8.30;99.90;;;;;;5060758;28;19940;-75
2024/01/02 12:49:51;;;;;;;;;;;8.40;99.90;;;;;;5061997;28;19932;-74
2024/01/02 12:52:19;;;;;;;;;;;8.40;99.90;;;;;;5058254;28;19940;-74
2024/01/02 12:54:47;;;;;;;;;;;8.30;99.90;;;;;;5060824;28;20770;-74
2024/01/02 12:57:15;;;;;;;;;;;8.40;99.90;;;;;;5055639;28;19929;-74
2024/01/02 12:59:43;;;;;;;;;;;8.40;99.90;;;;;;5061712;28;19928;-75
2024/01/02 13:02:10;;;;;;;;;;;8.40;99.90;;;;;;5065275;28;19976;-75
2024/01/02 13:04:37;;;;;;;;;;;8.40;99.90;;;;;;5061702;28;19931;-72
2024/01/02 13:07:06;;;;;;;;;;;8.50;99.90;;;;;;5053190;28;20527;-74
2024/01/02 13:09:33;;;;;;;;;;;8.40;99.90;;;;;;5040654;28;19928;-78
2024/01/02 13:12:01;;;;;;;;;;;8.40;99.90;;;;;;5048134;28;19934;-77
2024/01/02 13:14:30;;;;;;;;;;;8.50;99.90;;;;;;5044332;28;19936;-74
2024/01/02 13:16:58;;;;;;;;;;;8.50;99.90;;;;;;5042888;28;20019;-77
2024/01/02 13:19:26;;;;;;;;;;;8.40;99.90;;;;;;5048675;28;19983;-76
2024/01/02 13:21:53;;;;;;;;;;;8.50;99.90;;;;;;5047604;28;19935;-75
2024/01/02 13:24:22;;;;;;;;;;;8.50;99.90;;;;;;5049486;28;19932;-75
2024/01/02 13:26:49;;;;;;;;;;;8.50;99.90;;;;;;5047952;28;20783;-75
2024/01/02 13:29:16;;;;;;;;;;;8.50;99.90;;;;;;5047968;28;19964;-75
2024/01/02 13:31:45;;;;;;;;;;;8.50;99.90;;;;;;5049692;28;19929;-74
2024/01/02 13:34:22;;;;;;;;;;;8.50;99.90;;;;;;5048722;28;19929;-78
2024/01/02 13:36:49;;;;;;;;;;;8.50;99.90;;;;;;5050628;28;19932;-76
2024/01/02 13:39:32;;;;;;;;;;;8.60;99.90;;;;;;5049280;28;19928;-77
2024/01/02 13:41:59;;;;;;;;;;;8.60;99.90;;;;;;5048092;28;20022;-78
2024/01/02 13:44:25;;;;;;;;;;;8.60;99.90;;;;;;5046776;28;19928;-77
2024/01/02 13:46:53;;;;;;;;;;;8.60;99.90;;;;;;5045173;28;19929;-78
2024/01/02 13:49:20;;;;;;;;;;;8.60;99.90;;;;;;5068040;28;19932;-78
2024/01/02 13:51:47;;;;;;;;;;;8.60;99.90;;;;;;5067707;28;19928;-79
2024/01/02 13:54:14;;;;;;;;;;;8.60;99.90;;;;;;5063714;28;19939;-78
2024/01/02 13:56:48;;;;;;;;;;;8.60;99.90;;;;;;5066668;28;19935;-78
2024/01/02 13:59:15;;;;;;;;;;;8.60;99.90;;;;;;5065208;28;19934;-78
2024/01/02 14:01:42;;;;;;;;;;;8.60;99.90;;;;;;5064528;28;19928;-78
2024/01/02 14:04:12;;;;;;;;;;;8.60;99.90;;;;;;5065518;28;20427;-77
2024/01/02 14:06:39;;;;;;;;;;;8.60;99.90;;;;;;5067313;28;19928;-79
2024/01/02 14:09:14;;;;;;;;;;;8.60;99.90;;;;;;5063139;28;19928;-77
2024/01/02 14:11:56;;;;;;;;;;;8.60;99.90;;;;;;5065688;28;20008;-78
2024/01/02 14:14:28;;;;;;;;;;;8.60;99.90;;;;;;5065782;28;20003;-76
2024/01/02 14:16:57;;;;;;;;;;;8.60;99.90;;;;;;5060904;28;20542;-78
2024/01/02 14:19:27;;;;;;;;;;;8.60;99.90;;;;;;5064907;28;20275;-77
2024/01/02 14:21:56;;;;;;;;;;;8.60;99.90;;;;;;5058584;28;19928;-78
2024/01/02 14:24:26;;;;;;;;;;;8.60;99.90;;;;;;5062276;28;19972;-77
2024/01/02 14:26:55;;;;;;;;;;;8.60;99.90;;;;;;5065024;28;19935;-77
2024/01/02 14:29:26;;;;;;;;;;;8.60;99.90;;;;;;5066896;28;20856;-80
2024/01/02 14:31:58;;;;;;;;;;;8.60;99.90;;;;;;5059593;28;20428;-75
2024/01/02 14:34:32;;;;;;;;;;;8.70;99.90;;;;;;5057697;28;19932;-76
2024/01/02 14:37:01;;;;;;;;;;;8.80;99.90;;;;;;5059013;28;19939;-76